sensor_id;sensor_type;location;lat;lon;timestamp;temperature;humidity
56172;DHT22;42052;41.634;-0.946;2023-12-14T00:02:09;22.20;44.90
56172;DHT22;42052;41.634;-0.946;2023-12-14T00:04:35;22.20;44.90
56172;DHT22;42052;41.634;-0.946;2023-12-14T00:07:01;22.20;44.80
56172;DHT22;42052;41.634;-0.946;2023-12-14T00:09:27;22.20;45.00
56172;DHT22;42052;41.634;-0.946;2023-12-14T00:11:53;22.10;45.00
56172;DHT22;42052;41.634;-0.946;2023-12-14T00:14:18;22.10;44.70
56172;DHT22;42052;41.634;-0.946;2023-12-14T00:16:44;22.10;44.90
56172;DHT22;42052;41.634;-0.946;2023-12-14T00:19:10;22.10;44.90
56172;DHT22;42052;41.634;-0.946;2023-12-14T00:21:36;22.10;44.90
56172;DHT22;42052;41.634;-0.946;2023-12-14T00:24:02;22.10;44.80
56172;DHT22;42052;41.634;-0.946;2023-12-14T00:26:28;22.10;44.70
56172;DHT22;42052;41.634;-0.946;2023-12-14T00:28:53;22.10;44.70
56172;DHT22;42052;41.634;-0.946;2023-12-14T00:31:19;22.10;44.90
56172;DHT22;42052;41.634;-0.946;2023-12-14T00:33:45;22.10;44.90
56172;DHT22;42052;41.634;-0.946;2023-12-14T00:36:18;22.10;45.00
56172;DHT22;42052;41.634;-0.946;2023-12-14T00:38:44;22.10;44.80
56172;DHT22;42052;41.634;-0.946;2023-12-14T00:41:10;22.10;45.00
56172;DHT22;42052;41.634;-0.946;2023-12-14T00:43:36;22.00;44.90
56172;DHT22;42052;41.634;-0.946;2023-12-14T00:46:03;22.10;44.80
56172;DHT22;42052;41.634;-0.946;2023-12-14T00:48:29;22.00;44.90
56172;DHT22;42052;41.634;-0.946;2023-12-14T00:50:55;22.00;44.90
56172;DHT22;42052;41.634;-0.946;2023-12-14T00:53:21;22.10;44.70
56172;DHT22;42052;41.634;-0.946;2023-12-14T00:55:46;22.00;44.70
56172;DHT22;42052;41.634;-0.946;2023-12-14T00:58:13;22.00;44.90
56172;DHT22;42052;41.634;-0.946;2023-12-14T01:00:39;22.00;44.70
56172;DHT22;42052;41.634;-0.946;2023-12-14T01:03:05;22.00;44.90
56172;DHT22;42052;41.634;-0.946;2023-12-14T01:05:30;22.00;44.80
56172;DHT22;42052;41.634;-0.946;2023-12-14T01:07:56;22.00;44.80
56172;DHT22;42052;41.634;-0.946;2023-12-14T01:10:22;22.00;44.90
56172;DHT22;42052;41.634;-0.946;2023-12-14T01:12:48;22.00;45.00
56172;DHT22;42052;41.634;-0.946;2023-12-14T01:15:13;22.00;44.90
56172;DHT22;42052;41.634;-0.946;2023-12-14T01:17:39;22.00;45.00
56172;DHT22;42052;41.634;-0.946;2023-12-14T01:20:08;22.00;45.00
56172;DHT22;42052;41.634;-0.946;2023-12-14T01:22:34;22.00;44.80
56172;DHT22;42052;41.634;-0.946;2023-12-14T01:25:00;22.00;45.50
56172;DHT22;42052;41.634;-0.946;2023-12-14T01:27:26;22.00;44.80
56172;DHT22;42052;41.634;-0.946;2023-12-14T01:29:52;22.00;44.80
56172;DHT22;42052;41.634;-0.946;2023-12-14T01:32:18;22.00;44.80
56172;DHT22;42052;41.634;-0.946;2023-12-14T01:34:44;22.00;44.90
56172;DHT22;42052;41.634;-0.946;2023-12-14T01:37:10;22.00;44.90
56172;DHT22;42052;41.634;-0.946;2023-12-14T01:39:36;22.00;44.70
56172;DHT22;42052;41.634;-0.946;2023-12-14T01:42:02;22.00;44.80
56172;DHT22;42052;41.634;-0.946;2023-12-14T01:44:28;21.90;44.70
56172;DHT22;42052;41.634;-0.946;2023-12-14T01:46:53;22.00;44.80
56172;DHT22;42052;41.634;-0.946;2023-12-14T01:49:19;22.00;44.70
56172;DHT22;42052;41.634;-0.946;2023-12-14T01:51:45;21.90;44.60
56172;DHT22;42052;41.634;-0.946;2023-12-14T01:54:11;22.00;44.70
56172;DHT22;42052;41.634;-0.946;2023-12-14T01:56:37;22.00;44.70
56172;DHT22;42052;41.634;-0.946;2023-12-14T01:59:02;22.00;44.70
56172;DHT22;42052;41.634;-0.946;2023-12-14T02:01:42;22.00;44.70
56172;DHT22;42052;41.634;-0.946;2023-12-14T02:04:09;22.00;44.70
56172;DHT22;42052;41.634;-0.946;2023-12-14T02:06:35;21.90;44.60
56172;DHT22;42052;41.634;-0.946;2023-12-14T02:09:02;22.00;44.70
56172;DHT22;42052;41.634;-0.946;2023-12-14T02:11:28;21.90;44.60
56172;DHT22;42052;41.634;-0.946;2023-12-14T02:13:53;21.90;44.70
56172;DHT22;42052;41.634;-0.946;2023-12-14T02:16:19;21.90;44.70
56172;DHT22;42052;41.634;-0.946;2023-12-14T02:18:45;21.90;44.60
56172;DHT22;42052;41.634;-0.946;2023-12-14T02:21:11;21.90;44.70
56172;DHT22;42052;41.634;-0.946;2023-12-14T02:23:46;21.90;44.60
56172;DHT22;42052;41.634;-0.946;2023-12-14T02:26:13;21.90;44.60
56172;DHT22;42052;41.634;-0.946;2023-12-14T02:28:39;21.90;44.60
56172;DHT22;42052;41.634;-0.946;2023-12-14T02:31:05;21.90;44.60
56172;DHT22;42052;41.634;-0.946;2023-12-14T02:33:31;21.90;44.40
56172;DHT22;42052;41.634;-0.946;2023-12-14T02:35:57;21.90;44.50
56172;DHT22;42052;41.634;-0.946;2023-12-14T02:38:23;21.90;44.50
56172;DHT22;42052;41.634;-0.946;2023-12-14T02:40:49;21.90;44.60
56172;DHT22;42052;41.634;-0.946;2023-12-14T02:43:19;21.90;44.40
56172;DHT22;42052;41.634;-0.946;2023-12-14T02:45:45;21.90;44.40
56172;DHT22;42052;41.634;-0.946;2023-12-14T02:48:11;21.90;44.40
56172;DHT22;42052;41.634;-0.946;2023-12-14T02:50:37;21.90;44.50
56172;DHT22;42052;41.634;-0.946;2023-12-14T02:53:03;21.80;44.30
56172;DHT22;42052;41.634;-0.946;2023-12-14T02:55:29;21.80;44.40
56172;DHT22;42052;41.634;-0.946;2023-12-14T02:57:54;21.80;44.30
56172;DHT22;42052;41.634;-0.946;2023-12-14T03:00:20;21.90;44.40
56172;DHT22;42052;41.634;-0.946;2023-12-14T03:02:46;21.80;44.40
56172;DHT22;42052;41.634;-0.946;2023-12-14T03:05:12;21.80;44.10
56172;DHT22;42052;41.634;-0.946;2023-12-14T03:07:38;21.80;44.40
56172;DHT22;42052;41.634;-0.946;2023-12-14T03:10:04;21.80;44.40
56172;DHT22;42052;41.634;-0.946;2023-12-14T03:12:30;21.80;44.30
56172;DHT22;42052;41.634;-0.946;2023-12-14T03:14:55;21.80;44.40
56172;DHT22;42052;41.634;-0.946;2023-12-14T03:17:21;21.80;44.30
56172;DHT22;42052;41.634;-0.946;2023-12-14T03:19:47;21.80;44.20
56172;DHT22;42052;41.634;-0.946;2023-12-14T03:22:13;21.80;44.30
56172;DHT22;42052;41.634;-0.946;2023-12-14T03:24:39;21.80;44.30
56172;DHT22;42052;41.634;-0.946;2023-12-14T03:27:05;21.80;44.30
56172;DHT22;42052;41.634;-0.946;2023-12-14T03:29:31;21.80;44.20
56172;DHT22;42052;41.634;-0.946;2023-12-14T03:31:57;21.80;44.30
56172;DHT22;42052;41.634;-0.946;2023-12-14T03:34:24;21.80;44.30
56172;DHT22;42052;41.634;-0.946;2023-12-14T03:36:50;21.80;44.20
56172;DHT22;42052;41.634;-0.946;2023-12-14T03:39:17;21.70;44.30
56172;DHT22;42052;41.634;-0.946;2023-12-14T03:41:45;21.80;44.30
56172;DHT22;42052;41.634;-0.946;2023-12-14T03:44:11;21.80;44.30
56172;DHT22;42052;41.634;-0.946;2023-12-14T03:46:37;21.70;44.40
56172;DHT22;42052;41.634;-0.946;2023-12-14T03:49:03;21.70;44.50
56172;DHT22;42052;41.634;-0.946;2023-12-14T03:51:30;21.80;44.70
56172;DHT22;42052;41.634;-0.946;2023-12-14T03:53:56;21.80;45.20
56172;DHT22;42052;41.634;-0.946;2023-12-14T03:56:21;21.80;45.30
56172;DHT22;42052;41.634;-0.946;2023-12-14T03:58:48;21.80;45.30
56172;DHT22;42052;41.634;-0.946;2023-12-14T04:01:18;21.80;45.30
56172;DHT22;42052;41.634;-0.946;2023-12-14T04:03:44;21.80;45.30
56172;DHT22;42052;41.634;-0.946;2023-12-14T04:06:11;21.80;45.30
56172;DHT22;42052;41.634;-0.946;2023-12-14T04:08:37;21.80;45.30
56172;DHT22;42052;41.634;-0.946;2023-12-14T04:11:03;21.80;45.90
56172;DHT22;42052;41.634;-0.946;2023-12-14T04:13:29;21.80;45.30
56172;DHT22;42052;41.634;-0.946;2023-12-14T04:15:55;21.90;45.20
56172;DHT22;42052;41.634;-0.946;2023-12-14T04:18:20;21.80;45.20
56172;DHT22;42052;41.634;-0.946;2023-12-14T04:20:46;21.90;45.40
56172;DHT22;42052;41.634;-0.946;2023-12-14T04:23:12;21.90;45.30
56172;DHT22;42052;41.634;-0.946;2023-12-14T04:25:38;21.80;45.20
56172;DHT22;42052;41.634;-0.946;2023-12-14T04:28:03;21.80;45.20
56172;DHT22;42052;41.634;-0.946;2023-12-14T04:30:29;21.90;45.20
56172;DHT22;42052;41.634;-0.946;2023-12-14T04:32:55;21.80;45.10
56172;DHT22;42052;41.634;-0.946;2023-12-14T04:35:21;21.90;45.20
56172;DHT22;42052;41.634;-0.946;2023-12-14T04:37:48;21.90;45.20
56172;DHT22;42052;41.634;-0.946;2023-12-14T04:40:14;21.90;45.10
56172;DHT22;42052;41.634;-0.946;2023-12-14T04:42:40;21.80;45.00
56172;DHT22;42052;41.634;-0.946;2023-12-14T04:45:06;21.90;45.20
56172;DHT22;42052;41.634;-0.946;2023-12-14T04:47:32;21.80;44.80
56172;DHT22;42052;41.634;-0.946;2023-12-14T04:49:58;21.80;44.80
56172;DHT22;42052;41.634;-0.946;2023-12-14T04:52:24;21.80;45.00
56172;DHT22;42052;41.634;-0.946;2023-12-14T04:54:49;21.80;45.10
56172;DHT22;42052;41.634;-0.946;2023-12-14T04:57:15;21.80;45.10
56172;DHT22;42052;41.634;-0.946;2023-12-14T04:59:41;21.80;45.30
56172;DHT22;42052;41.634;-0.946;2023-12-14T05:02:07;21.80;45.20
56172;DHT22;42052;41.634;-0.946;2023-12-14T05:04:33;21.80;45.20
56172;DHT22;42052;41.634;-0.946;2023-12-14T05:06:59;21.80;45.00
56172;DHT22;42052;41.634;-0.946;2023-12-14T05:09:25;21.80;45.10
56172;DHT22;42052;41.634;-0.946;2023-12-14T05:11:50;21.80;45.90
56172;DHT22;42052;41.634;-0.946;2023-12-14T05:14:17;21.80;45.20
56172;DHT22;42052;41.634;-0.946;2023-12-14T05:16:43;21.80;45.20
56172;DHT22;42052;41.634;-0.946;2023-12-14T05:19:09;21.80;45.00
56172;DHT22;42052;41.634;-0.946;2023-12-14T05:21:35;21.80;45.20
56172;DHT22;42052;41.634;-0.946;2023-12-14T05:24:01;21.80;45.20
56172;DHT22;42052;41.634;-0.946;2023-12-14T05:26:27;21.80;45.30
56172;DHT22;42052;41.634;-0.946;2023-12-14T05:28:53;21.80;45.20
56172;DHT22;42052;41.634;-0.946;2023-12-14T05:31:19;21.80;45.20
56172;DHT22;42052;41.634;-0.946;2023-12-14T05:33:45;21.80;45.10
56172;DHT22;42052;41.634;-0.946;2023-12-14T05:36:10;21.80;45.20
56172;DHT22;42052;41.634;-0.946;2023-12-14T05:38:40;21.80;45.10
56172;DHT22;42052;41.634;-0.946;2023-12-14T05:41:06;21.90;45.10
56172;DHT22;42052;41.634;-0.946;2023-12-14T05:43:32;21.80;44.90
56172;DHT22;42052;41.634;-0.946;2023-12-14T05:45:58;21.80;44.90
56172;DHT22;42052;41.634;-0.946;2023-12-14T05:48:24;21.80;44.80
56172;DHT22;42052;41.634;-0.946;2023-12-14T05:50:52;21.80;44.80
56172;DHT22;42052;41.634;-0.946;2023-12-14T05:53:18;21.80;44.90
56172;DHT22;42052;41.634;-0.946;2023-12-14T05:55:43;21.90;44.90
56172;DHT22;42052;41.634;-0.946;2023-12-14T05:58:09;21.80;44.90
56172;DHT22;42052;41.634;-0.946;2023-12-14T06:00:35;21.80;44.80
56172;DHT22;42052;41.634;-0.946;2023-12-14T06:03:02;21.80;44.80
56172;DHT22;42052;41.634;-0.946;2023-12-14T06:05:28;21.80;44.90
56172;DHT22;42052;41.634;-0.946;2023-12-14T06:07:53;21.80;44.90
56172;DHT22;42052;41.634;-0.946;2023-12-14T06:10:20;21.80;44.90
56172;DHT22;42052;41.634;-0.946;2023-12-14T06:12:46;21.80;44.90
56172;DHT22;42052;41.634;-0.946;2023-12-14T06:15:12;21.80;44.80
56172;DHT22;42052;41.634;-0.946;2023-12-14T06:17:38;21.80;44.90
56172;DHT22;42052;41.634;-0.946;2023-12-14T06:20:06;21.80;44.60
56172;DHT22;42052;41.634;-0.946;2023-12-14T06:22:39;21.80;44.70
56172;DHT22;42052;41.634;-0.946;2023-12-14T06:25:05;21.80;44.80
56172;DHT22;42052;41.634;-0.946;2023-12-14T06:27:31;21.80;44.90
56172;DHT22;42052;41.634;-0.946;2023-12-14T06:29:57;21.80;45.10
56172;DHT22;42052;41.634;-0.946;2023-12-14T06:32:23;21.80;45.20
56172;DHT22;42052;41.634;-0.946;2023-12-14T06:34:49;21.80;45.20
56172;DHT22;42052;41.634;-0.946;2023-12-14T06:37:15;21.80;44.60
56172;DHT22;42052;41.634;-0.946;2023-12-14T06:39:41;21.80;44.80
56172;DHT22;42052;41.634;-0.946;2023-12-14T06:42:07;21.80;45.00
56172;DHT22;42052;41.634;-0.946;2023-12-14T06:44:33;21.80;44.90
56172;DHT22;42052;41.634;-0.946;2023-12-14T06:46:59;21.80;44.80
56172;DHT22;42052;41.634;-0.946;2023-12-14T06:49:25;21.80;44.80
56172;DHT22;42052;41.634;-0.946;2023-12-14T06:51:51;21.80;44.80
56172;DHT22;42052;41.634;-0.946;2023-12-14T06:54:17;21.80;44.60
56172;DHT22;42052;41.634;-0.946;2023-12-14T06:56:43;21.80;44.50
56172;DHT22;42052;41.634;-0.946;2023-12-14T06:59:09;21.80;44.60
56172;DHT22;42052;41.634;-0.946;2023-12-14T07:01:35;21.80;44.80
56172;DHT22;42052;41.634;-0.946;2023-12-14T07:04:00;21.90;44.80
56172;DHT22;42052;41.634;-0.946;2023-12-14T07:06:28;21.80;45.00
56172;DHT22;42052;41.634;-0.946;2023-12-14T07:08:54;21.80;45.00
56172;DHT22;42052;41.634;-0.946;2023-12-14T07:11:20;21.90;44.80
56172;DHT22;42052;41.634;-0.946;2023-12-14T07:13:45;21.80;44.70
56172;DHT22;42052;41.634;-0.946;2023-12-14T07:16:12;21.80;44.60
56172;DHT22;42052;41.634;-0.946;2023-12-14T07:18:40;21.90;44.60
56172;DHT22;42052;41.634;-0.946;2023-12-14T07:21:06;21.90;44.50
56172;DHT22;42052;41.634;-0.946;2023-12-14T07:23:34;21.90;44.60
56172;DHT22;42052;41.634;-0.946;2023-12-14T07:26:00;21.90;44.60
56172;DHT22;42052;41.634;-0.946;2023-12-14T07:28:26;21.80;44.40
56172;DHT22;42052;41.634;-0.946;2023-12-14T07:30:52;21.80;44.50
56172;DHT22;42052;41.634;-0.946;2023-12-14T07:33:18;21.80;44.50
56172;DHT22;42052;41.634;-0.946;2023-12-14T07:35:44;21.80;44.40
56172;DHT22;42052;41.634;-0.946;2023-12-14T07:38:10;21.80;44.40
56172;DHT22;42052;41.634;-0.946;2023-12-14T07:40:36;21.80;44.30
56172;DHT22;42052;41.634;-0.946;2023-12-14T07:43:04;21.80;44.30
56172;DHT22;42052;41.634;-0.946;2023-12-14T07:45:30;21.80;44.40
56172;DHT22;42052;41.634;-0.946;2023-12-14T07:47:56;21.80;44.30
56172;DHT22;42052;41.634;-0.946;2023-12-14T07:50:22;21.80;44.30
56172;DHT22;42052;41.634;-0.946;2023-12-14T07:52:48;21.80;44.20
56172;DHT22;42052;41.634;-0.946;2023-12-14T07:55:13;21.80;44.20
56172;DHT22;42052;41.634;-0.946;2023-12-14T07:57:39;21.80;44.20
56172;DHT22;42052;41.634;-0.946;2023-12-14T08:00:06;21.80;44.30
56172;DHT22;42052;41.634;-0.946;2023-12-14T08:02:34;21.80;44.30
56172;DHT22;42052;41.634;-0.946;2023-12-14T08:05:00;21.80;44.10
56172;DHT22;42052;41.634;-0.946;2023-12-14T08:07:26;21.80;44.30
56172;DHT22;42052;41.634;-0.946;2023-12-14T08:09:57;21.80;44.30
56172;DHT22;42052;41.634;-0.946;2023-12-14T08:12:23;21.80;44.20
56172;DHT22;42052;41.634;-0.946;2023-12-14T08:14:50;21.70;44.30
56172;DHT22;42052;41.634;-0.946;2023-12-14T08:17:15;21.70;44.20
56172;DHT22;42052;41.634;-0.946;2023-12-14T08:19:42;21.80;44.30
56172;DHT22;42052;41.634;-0.946;2023-12-14T08:22:08;21.70;44.10
56172;DHT22;42052;41.634;-0.946;2023-12-14T08:24:37;21.70;44.20
56172;DHT22;42052;41.634;-0.946;2023-12-14T08:27:03;21.70;44.10
56172;DHT22;42052;41.634;-0.946;2023-12-14T08:29:28;21.70;44.20
56172;DHT22;42052;41.634;-0.946;2023-12-14T08:31:54;21.70;44.20
56172;DHT22;42052;41.634;-0.946;2023-12-14T08:34:26;21.70;44.20
56172;DHT22;42052;41.634;-0.946;2023-12-14T08:36:52;21.70;44.20
56172;DHT22;42052;41.634;-0.946;2023-12-14T08:39:19;21.70;44.10
56172;DHT22;42052;41.634;-0.946;2023-12-14T08:41:48;21.70;44.10
56172;DHT22;42052;41.634;-0.946;2023-12-14T08:44:14;21.70;44.10
56172;DHT22;42052;41.634;-0.946;2023-12-14T08:46:42;21.70;44.10
56172;DHT22;42052;41.634;-0.946;2023-12-14T08:49:09;21.70;44.10
56172;DHT22;42052;41.634;-0.946;2023-12-14T08:51:35;21.70;44.10
56172;DHT22;42052;41.634;-0.946;2023-12-14T08:54:01;21.60;44.00
56172;DHT22;42052;41.634;-0.946;2023-12-14T08:56:27;21.60;44.00
56172;DHT22;42052;41.634;-0.946;2023-12-14T08:58:52;21.60;44.10
56172;DHT22;42052;41.634;-0.946;2023-12-14T09:01:22;21.60;44.00
56172;DHT22;42052;41.634;-0.946;2023-12-14T09:03:49;21.70;44.10
56172;DHT22;42052;41.634;-0.946;2023-12-14T09:06:16;21.60;44.00
56172;DHT22;42052;41.634;-0.946;2023-12-14T09:08:43;21.60;44.00
56172;DHT22;42052;41.634;-0.946;2023-12-14T09:11:09;21.60;44.00
56172;DHT22;42052;41.634;-0.946;2023-12-14T09:13:35;21.60;44.00
56172;DHT22;42052;41.634;-0.946;2023-12-14T09:16:01;21.60;44.00
56172;DHT22;42052;41.634;-0.946;2023-12-14T09:18:27;21.60;44.00
56172;DHT22;42052;41.634;-0.946;2023-12-14T09:20:52;21.60;44.00
56172;DHT22;42052;41.634;-0.946;2023-12-14T09:23:18;21.60;44.00
56172;DHT22;42052;41.634;-0.946;2023-12-14T09:25:45;21.60;44.00
56172;DHT22;42052;41.634;-0.946;2023-12-14T09:28:11;21.60;44.00
56172;DHT22;42052;41.634;-0.946;2023-12-14T09:30:37;21.60;44.00
56172;DHT22;42052;41.634;-0.946;2023-12-14T09:33:03;21.60;43.90
56172;DHT22;42052;41.634;-0.946;2023-12-14T09:35:29;21.60;43.90
56172;DHT22;42052;41.634;-0.946;2023-12-14T09:37:55;21.60;44.00
56172;DHT22;42052;41.634;-0.946;2023-12-14T09:40:22;21.60;44.00
56172;DHT22;42052;41.634;-0.946;2023-12-14T09:42:48;21.60;44.00
56172;DHT22;42052;41.634;-0.946;2023-12-14T09:45:16;21.60;43.90
56172;DHT22;42052;41.634;-0.946;2023-12-14T09:47:44;21.60;44.00
56172;DHT22;42052;41.634;-0.946;2023-12-14T09:50:12;21.60;44.00
56172;DHT22;42052;41.634;-0.946;2023-12-14T09:52:39;21.60;43.90
56172;DHT22;42052;41.634;-0.946;2023-12-14T09:55:05;21.60;43.90
56172;DHT22;42052;41.634;-0.946;2023-12-14T09:57:31;21.60;43.70
56172;DHT22;42052;41.634;-0.946;2023-12-14T09:59:57;21.60;43.70
56172;DHT22;42052;41.634;-0.946;2023-12-14T10:02:26;21.60;43.60
56172;DHT22;42052;41.634;-0.946;2023-12-14T10:04:53;21.60;43.60
56172;DHT22;42052;41.634;-0.946;2023-12-14T10:07:20;21.60;43.40
56172;DHT22;42052;41.634;-0.946;2023-12-14T10:09:47;21.60;43.70
56172;DHT22;42052;41.634;-0.946;2023-12-14T10:12:13;21.60;43.60
56172;DHT22;42052;41.634;-0.946;2023-12-14T10:14:38;21.60;43.60
56172;DHT22;42052;41.634;-0.946;2023-12-14T10:17:18;21.60;43.60
56172;DHT22;42052;41.634;-0.946;2023-12-14T10:19:45;21.60;43.50
56172;DHT22;42052;41.634;-0.946;2023-12-14T10:22:14;21.60;43.30
56172;DHT22;42052;41.634;-0.946;2023-12-14T10:24:45;21.60;43.30
56172;DHT22;42052;41.634;-0.946;2023-12-14T10:27:12;21.60;43.40
56172;DHT22;42052;41.634;-0.946;2023-12-14T10:29:39;21.60;43.30
56172;DHT22;42052;41.634;-0.946;2023-12-14T10:32:06;21.60;43.30
56172;DHT22;42052;41.634;-0.946;2023-12-14T10:34:36;21.60;43.40
56172;DHT22;42052;41.634;-0.946;2023-12-14T10:37:05;21.60;43.30
56172;DHT22;42052;41.634;-0.946;2023-12-14T10:39:36;21.60;43.40
56172;DHT22;42052;41.634;-0.946;2023-12-14T10:42:03;21.60;43.30
56172;DHT22;42052;41.634;-0.946;2023-12-14T10:44:31;21.60;43.30
56172;DHT22;42052;41.634;-0.946;2023-12-14T10:46:59;21.60;43.30
56172;DHT22;42052;41.634;-0.946;2023-12-14T10:49:25;21.70;43.20
56172;DHT22;42052;41.634;-0.946;2023-12-14T10:51:57;21.60;43.20
56172;DHT22;42052;41.634;-0.946;2023-12-14T10:54:25;21.70;43.30
56172;DHT22;42052;41.634;-0.946;2023-12-14T10:56:55;21.60;43.20
56172;DHT22;42052;41.634;-0.946;2023-12-14T10:59:23;21.60;43.20
56172;DHT22;42052;41.634;-0.946;2023-12-14T11:01:53;21.70;43.30
56172;DHT22;42052;41.634;-0.946;2023-12-14T11:04:21;21.70;43.20
56172;DHT22;42052;41.634;-0.946;2023-12-14T11:06:47;21.60;43.10
56172;DHT22;42052;41.634;-0.946;2023-12-14T11:09:17;21.60;43.20
56172;DHT22;42052;41.634;-0.946;2023-12-14T11:14:20;21.70;43.00
56172;DHT22;42052;41.634;-0.946;2023-12-14T11:16:48;21.60;43.00
56172;DHT22;42052;41.634;-0.946;2023-12-14T11:22:09;21.70;42.90
56172;DHT22;42052;41.634;-0.946;2023-12-14T11:24:36;21.60;43.00
56172;DHT22;42052;41.634;-0.946;2023-12-14T11:27:06;21.60;43.00
56172;DHT22;42052;41.634;-0.946;2023-12-14T11:29:33;21.70;43.00
56172;DHT22;42052;41.634;-0.946;2023-12-14T11:31:58;21.70;42.90
56172;DHT22;42052;41.634;-0.946;2023-12-14T11:34:25;21.70;42.90
56172;DHT22;42052;41.634;-0.946;2023-12-14T11:36:50;21.70;43.00
56172;DHT22;42052;41.634;-0.946;2023-12-14T11:39:16;21.70;43.70
56172;DHT22;42052;41.634;-0.946;2023-12-14T11:41:42;21.70;43.10
56172;DHT22;42052;41.634;-0.946;2023-12-14T11:44:08;21.70;43.00
56172;DHT22;42052;41.634;-0.946;2023-12-14T11:46:33;21.70;42.90
56172;DHT22;42052;41.634;-0.946;2023-12-14T11:49:00;21.70;42.90
56172;DHT22;42052;41.634;-0.946;2023-12-14T11:51:29;21.70;43.00
56172;DHT22;42052;41.634;-0.946;2023-12-14T11:53:57;21.70;43.70
56172;DHT22;42052;41.634;-0.946;2023-12-14T11:56:25;21.70;42.90
56172;DHT22;42052;41.634;-0.946;2023-12-14T11:58:51;21.70;43.00
56172;DHT22;42052;41.634;-0.946;2023-12-14T12:01:20;21.70;43.00
56172;DHT22;42052;41.634;-0.946;2023-12-14T12:03:51;21.70;42.90
56172;DHT22;42052;41.634;-0.946;2023-12-14T12:06:25;21.70;42.90
56172;DHT22;42052;41.634;-0.946;2023-12-14T12:08:54;21.70;42.90
56172;DHT22;42052;41.634;-0.946;2023-12-14T12:11:21;21.70;42.90
56172;DHT22;42052;41.634;-0.946;2023-12-14T12:13:56;21.70;42.80
56172;DHT22;42052;41.634;-0.946;2023-12-14T12:16:22;21.70;42.90
56172;DHT22;42052;41.634;-0.946;2023-12-14T12:18:48;21.70;42.80
56172;DHT22;42052;41.634;-0.946;2023-12-14T12:21:16;21.70;42.90
56172;DHT22;42052;41.634;-0.946;2023-12-14T12:23:42;21.70;42.90
56172;DHT22;42052;41.634;-0.946;2023-12-14T12:26:08;21.70;42.80
56172;DHT22;42052;41.634;-0.946;2023-12-14T12:28:34;21.70;42.80
56172;DHT22;42052;41.634;-0.946;2023-12-14T12:31:01;21.70;42.80
56172;DHT22;42052;41.634;-0.946;2023-12-14T12:33:26;21.70;42.90
56172;DHT22;42052;41.634;-0.946;2023-12-14T12:35:53;21.60;42.80
56172;DHT22;42052;41.634;-0.946;2023-12-14T12:38:19;21.60;42.80
56172;DHT22;42052;41.634;-0.946;2023-12-14T12:40:45;21.70;42.90
56172;DHT22;42052;41.634;-0.946;2023-12-14T12:43:14;21.60;42.90
56172;DHT22;42052;41.634;-0.946;2023-12-14T12:45:40;21.60;42.80
56172;DHT22;42052;41.634;-0.946;2023-12-14T12:48:05;21.60;42.90
56172;DHT22;42052;41.634;-0.946;2023-12-14T12:50:33;21.60;42.90
56172;DHT22;42052;41.634;-0.946;2023-12-14T12:52:59;21.60;42.90
56172;DHT22;42052;41.634;-0.946;2023-12-14T12:55:25;21.60;43.00
56172;DHT22;42052;41.634;-0.946;2023-12-14T12:57:51;21.60;42.80
56172;DHT22;42052;41.634;-0.946;2023-12-14T13:00:16;21.60;42.90
56172;DHT22;42052;41.634;-0.946;2023-12-14T13:02:44;21.60;42.90
56172;DHT22;42052;41.634;-0.946;2023-12-14T13:05:10;21.60;42.90
56172;DHT22;42052;41.634;-0.946;2023-12-14T13:07:37;21.60;42.90
56172;DHT22;42052;41.634;-0.946;2023-12-14T13:10:04;21.60;42.80
56172;DHT22;42052;41.634;-0.946;2023-12-14T13:12:31;21.60;42.80
56172;DHT22;42052;41.634;-0.946;2023-12-14T13:14:57;21.60;42.70
56172;DHT22;42052;41.634;-0.946;2023-12-14T13:17:23;21.60;42.70
56172;DHT22;42052;41.634;-0.946;2023-12-14T13:19:49;21.60;42.70
56172;DHT22;42052;41.634;-0.946;2023-12-14T13:22:15;21.60;42.80
56172;DHT22;42052;41.634;-0.946;2023-12-14T13:24:41;21.60;42.70
56172;DHT22;42052;41.634;-0.946;2023-12-14T13:27:07;21.60;42.80
56172;DHT22;42052;41.634;-0.946;2023-12-14T13:29:33;21.60;42.70
56172;DHT22;42052;41.634;-0.946;2023-12-14T13:32:00;21.60;42.70
56172;DHT22;42052;41.634;-0.946;2023-12-14T13:34:27;21.60;42.80
56172;DHT22;42052;41.634;-0.946;2023-12-14T13:36:56;21.60;42.90
56172;DHT22;42052;41.634;-0.946;2023-12-14T13:39:22;21.60;42.80
56172;DHT22;42052;41.634;-0.946;2023-12-14T13:41:48;21.60;42.80
56172;DHT22;42052;41.634;-0.946;2023-12-14T13:44:15;21.60;42.80
56172;DHT22;42052;41.634;-0.946;2023-12-14T13:46:40;21.60;42.80
56172;DHT22;42052;41.634;-0.946;2023-12-14T13:49:06;21.60;42.80
56172;DHT22;42052;41.634;-0.946;2023-12-14T13:51:32;21.60;42.90
56172;DHT22;42052;41.634;-0.946;2023-12-14T13:53:58;21.60;42.90
56172;DHT22;42052;41.634;-0.946;2023-12-14T13:56:24;21.60;42.90
56172;DHT22;42052;41.634;-0.946;2023-12-14T13:58:50;21.60;42.80
56172;DHT22;42052;41.634;-0.946;2023-12-14T14:01:16;21.60;42.80
56172;DHT22;42052;41.634;-0.946;2023-12-14T14:03:42;21.60;42.80
56172;DHT22;42052;41.634;-0.946;2023-12-14T14:06:08;21.60;42.70
56172;DHT22;42052;41.634;-0.946;2023-12-14T14:08:35;21.60;42.60
56172;DHT22;42052;41.634;-0.946;2023-12-14T14:11:01;21.60;42.80
56172;DHT22;42052;41.634;-0.946;2023-12-14T14:13:27;21.60;42.70
56172;DHT22;42052;41.634;-0.946;2023-12-14T14:15:53;21.60;42.80
56172;DHT22;42052;41.634;-0.946;2023-12-14T14:18:19;21.60;42.70
56172;DHT22;42052;41.634;-0.946;2023-12-14T14:20:45;21.60;42.80
56172;DHT22;42052;41.634;-0.946;2023-12-14T14:23:11;21.60;42.60
56172;DHT22;42052;41.634;-0.946;2023-12-14T14:25:37;21.60;42.60
56172;DHT22;42052;41.634;-0.946;2023-12-14T14:28:03;21.60;42.70
56172;DHT22;42052;41.634;-0.946;2023-12-14T14:30:29;21.60;42.70
56172;DHT22;42052;41.634;-0.946;2023-12-14T14:32:56;21.60;42.60
56172;DHT22;42052;41.634;-0.946;2023-12-14T14:35:22;21.60;42.70
56172;DHT22;42052;41.634;-0.946;2023-12-14T14:37:49;21.60;42.80
56172;DHT22;42052;41.634;-0.946;2023-12-14T14:40:16;21.60;42.70
56172;DHT22;42052;41.634;-0.946;2023-12-14T14:42:42;21.60;42.80
56172;DHT22;42052;41.634;-0.946;2023-12-14T14:45:09;21.60;42.60
56172;DHT22;42052;41.634;-0.946;2023-12-14T14:47:36;21.60;42.60
56172;DHT22;42052;41.634;-0.946;2023-12-14T14:50:03;21.60;42.70
56172;DHT22;42052;41.634;-0.946;2023-12-14T14:52:33;21.60;42.80
56172;DHT22;42052;41.634;-0.946;2023-12-14T14:54:59;21.60;42.80
56172;DHT22;42052;41.634;-0.946;2023-12-14T14:57:25;21.60;42.70
56172;DHT22;42052;41.634;-0.946;2023-12-14T14:59:52;21.60;42.70
56172;DHT22;42052;41.634;-0.946;2023-12-14T15:02:18;21.60;42.80
56172;DHT22;42052;41.634;-0.946;2023-12-14T15:04:44;21.60;42.80
56172;DHT22;42052;41.634;-0.946;2023-12-14T15:07:09;21.60;42.80
56172;DHT22;42052;41.634;-0.946;2023-12-14T15:09:35;21.60;42.90
56172;DHT22;42052;41.634;-0.946;2023-12-14T15:12:01;21.60;42.90
56172;DHT22;42052;41.634;-0.946;2023-12-14T15:14:27;21.60;42.90
56172;DHT22;42052;41.634;-0.946;2023-12-14T15:16:56;21.50;42.80